CA-0252 weather

CLOSED Murdochville Airport
Quebec, Canada

Public forecast

Using degrees Celsius for public forecast. Weather courtesy of forecast.io.

Closest aviation weather report (METAR) to Murdochville Airport

Closest report is GaspĂ© (Michel-Pouliot) Airport, 36.6 nm (67.8 km) ESE. Retrieved 2020/05/29 19:00 UTC (1 hour ago):

CYGP 291900Z CCA 27014G19KT 220V290 15SM FEW060TCU SCT080 SCT220 32/17 A2960 RMK TCU2AC1CI1 CI TR SLP024 DENSITY ALT 2400FT

Closest aviation forecast (TAF) to Murdochville Airport

Closest forecast is GaspĂ© (Michel-Pouliot) Airport, 36.6 nm (67.8 km) ESE. Retrieved 2020/05/29 20:00 UTC (6 minutes ago):

TAF CYGP 291930Z 2920/3008 25015G25KT P6SM FEW050 BKN070 BKN220 TEMPO 2920/2923 P6SM -SHRA BKN050 OVC070 BECMG 2921/2923 28010KT RMK NXT FCST BY 300200Z